sensor_id;sensor_type;location;lat;lon;timestamp;noise_LAeq;noise_LA_min;noise_LA_max;noise_LA01;noise_LA95
45964;Laerm;31671;48.092;11.842;2022-11-11T00:01:32;55.07;27.83;91.10;;
45964;Laerm;31671;48.092;11.842;2022-11-11T00:04:16;52.44;28.30;88.61;;
45964;Laerm;31671;48.092;11.842;2022-11-11T00:07:01;30.26;27.95;59.21;;
45964;Laerm;31671;48.092;11.842;2022-11-11T00:09:45;29.55;27.69;43.82;;
45964;Laerm;31671;48.092;11.842;2022-11-11T00:12:29;29.84;27.74;41.84;;
45964;Laerm;31671;48.092;11.842;2022-11-11T00:15:13;35.30;27.53;61.77;;
45964;Laerm;31671;48.092;11.842;2022-11-11T00:17:57;29.07;27.73;41.36;;
45964;Laerm;31671;48.092;11.842;2022-11-11T00:20:41;29.10;27.54;34.24;;
45964;Laerm;31671;48.092;11.842;2022-11-11T00:23:26;47.79;27.44;84.45;;
45964;Laerm;31671;48.092;11.842;2022-11-11T00:26:12;35.18;27.67;62.25;;
45964;Laerm;31671;48.092;11.842;2022-11-11T00:28:57;52.32;27.88;86.66;;
45964;Laerm;31671;48.092;11.842;2022-11-11T00:31:41;49.56;29.51;85.13;;
45964;Laerm;31671;48.092;11.842;2022-11-11T00:34:25;32.21;28.26;44.39;;
45964;Laerm;31671;48.092;11.842;2022-11-11T00:37:10;30.79;27.91;41.98;;
45964;Laerm;31671;48.092;11.842;2022-11-11T00:39:54;29.83;27.85;42.41;;
45964;Laerm;31671;48.092;11.842;2022-11-11T00:42:38;29.47;27.85;35.75;;
45964;Laerm;31671;48.092;11.842;2022-11-11T00:45:22;30.43;27.83;49.86;;
45964;Laerm;31671;48.092;11.842;2022-11-11T00:48:07;29.62;27.65;40.58;;
45964;Laerm;31671;48.092;11.842;2022-11-11T00:50:51;29.33;27.55;39.58;;
45964;Laerm;31671;48.092;11.842;2022-11-11T00:53:36;29.36;27.68;42.21;;
45964;Laerm;31671;48.092;11.842;2022-11-11T00:56:20;29.24;27.63;39.50;;
45964;Laerm;31671;48.092;11.842;2022-11-11T00:59:05;30.51;27.75;46.67;;
45964;Laerm;31671;48.092;11.842;2022-11-11T01:01:50;31.24;27.70;49.61;;
45964;Laerm;31671;48.092;11.842;2022-11-11T01:04:34;30.08;27.89;47.04;;
45964;Laerm;31671;48.092;11.842;2022-11-11T01:07:18;30.43;27.56;46.56;;
45964;Laerm;31671;48.092;11.842;2022-11-11T01:10:03;29.47;27.70;40.95;;
45964;Laerm;31671;48.092;11.842;2022-11-11T01:12:47;30.82;27.47;47.87;;
45964;Laerm;31671;48.092;11.842;2022-11-11T01:15:35;32.62;27.73;50.79;;
45964;Laerm;31671;48.092;11.842;2022-11-11T01:18:21;30.78;27.85;49.68;;
45964;Laerm;31671;48.092;11.842;2022-11-11T01:23:53;29.50;27.51;43.77;;
45964;Laerm;31671;48.092;11.842;2022-11-11T01:26:37;29.15;27.67;37.09;;
45964;Laerm;31671;48.092;11.842;2022-11-11T01:29:21;32.05;27.87;55.19;;
45964;Laerm;31671;48.092;11.842;2022-11-11T01:32:05;29.41;27.71;43.26;;
45964;Laerm;31671;48.092;11.842;2022-11-11T01:34:49;29.20;27.73;35.80;;
45964;Laerm;31671;48.092;11.842;2022-11-11T01:37:34;30.62;27.91;43.31;;
45964;Laerm;31671;48.092;11.842;2022-11-11T01:40:19;29.20;27.72;47.44;;
45964;Laerm;31671;48.092;11.842;2022-11-11T01:48:42;29.61;27.73;50.46;;
45964;Laerm;31671;48.092;11.842;2022-11-11T01:51:41;32.21;27.62;55.11;;
45964;Laerm;31671;48.092;11.842;2022-11-11T02:00:01;30.12;27.62;45.81;;
45964;Laerm;31671;48.092;11.842;2022-11-11T02:02:47;30.60;27.58;47.66;;
45964;Laerm;31671;48.092;11.842;2022-11-11T02:05:31;29.19;27.57;43.96;;
45964;Laerm;31671;48.092;11.842;2022-11-11T02:08:20;29.23;27.25;41.70;;
45964;Laerm;31671;48.092;11.842;2022-11-11T02:11:11;29.06;27.77;35.50;;
45964;Laerm;31671;48.092;11.842;2022-11-11T02:13:57;29.36;27.60;43.60;;
45964;Laerm;31671;48.092;11.842;2022-11-11T02:16:41;29.15;27.28;40.12;;
45964;Laerm;31671;48.092;11.842;2022-11-11T02:19:30;31.92;27.65;52.94;;
45964;Laerm;31671;48.092;11.842;2022-11-11T02:22:22;31.72;27.62;50.46;;
45964;Laerm;31671;48.092;11.842;2022-11-11T02:25:08;32.61;27.26;54.19;;
45964;Laerm;31671;48.092;11.842;2022-11-11T02:27:53;29.17;27.56;36.43;;
45964;Laerm;31671;48.092;11.842;2022-11-11T02:30:41;29.01;27.61;33.54;;
45964;Laerm;31671;48.092;11.842;2022-11-11T02:33:25;28.96;27.51;35.86;;
45964;Laerm;31671;48.092;11.842;2022-11-11T02:36:09;29.01;27.47;30.33;;
45964;Laerm;31671;48.092;11.842;2022-11-11T02:38:58;29.05;27.62;32.87;;
45964;Laerm;31671;48.092;11.842;2022-11-11T02:41:46;29.19;27.48;31.65;;
45964;Laerm;31671;48.092;11.842;2022-11-11T02:44:30;28.95;27.72;30.60;;
45964;Laerm;31671;48.092;11.842;2022-11-11T02:47:14;29.02;27.71;30.17;;
45964;Laerm;31671;48.092;11.842;2022-11-11T02:49:58;29.05;27.47;30.68;;
45964;Laerm;31671;48.092;11.842;2022-11-11T02:52:42;29.01;27.30;30.19;;
45964;Laerm;31671;48.092;11.842;2022-11-11T02:55:27;29.06;27.79;30.51;;
45964;Laerm;31671;48.092;11.842;2022-11-11T02:58:11;28.99;27.60;30.28;;
45964;Laerm;31671;48.092;11.842;2022-11-11T03:00:56;29.07;27.91;30.44;;
45964;Laerm;31671;48.092;11.842;2022-11-11T03:03:40;29.02;27.72;30.42;;
45964;Laerm;31671;48.092;11.842;2022-11-11T03:06:25;31.33;27.77;63.11;;
45964;Laerm;31671;48.092;11.842;2022-11-11T03:09:09;29.29;27.54;34.72;;
45964;Laerm;31671;48.092;11.842;2022-11-11T03:11:53;36.37;27.66;59.53;;
45964;Laerm;31671;48.092;11.842;2022-11-11T03:14:38;29.30;27.63;43.56;;
45964;Laerm;31671;48.092;11.842;2022-11-11T03:17:22;31.77;27.61;53.09;;
45964;Laerm;31671;48.092;11.842;2022-11-11T03:25:45;42.35;27.36;78.96;;
45964;Laerm;31671;48.092;11.842;2022-11-11T03:28:29;29.80;27.70;45.33;;
45964;Laerm;31671;48.092;11.842;2022-11-11T03:31:13;29.60;27.53;46.65;;
45964;Laerm;31671;48.092;11.842;2022-11-11T03:33:58;30.52;27.68;45.80;;
45964;Laerm;31671;48.092;11.842;2022-11-11T03:36:43;29.35;27.51;48.21;;
45964;Laerm;31671;48.092;11.842;2022-11-11T03:39:27;31.21;27.66;53.66;;
45964;Laerm;31671;48.092;11.842;2022-11-11T03:42:11;30.39;27.61;47.57;;
45964;Laerm;31671;48.092;11.842;2022-11-11T03:44:56;32.46;27.58;53.63;;
45964;Laerm;31671;48.092;11.842;2022-11-11T03:47:40;31.56;27.56;50.38;;
45964;Laerm;31671;48.092;11.842;2022-11-11T03:50:24;30.24;27.52;50.21;;
45964;Laerm;31671;48.092;11.842;2022-11-11T03:53:08;33.76;28.02;63.10;;
45964;Laerm;31671;48.092;11.842;2022-11-11T03:55:52;30.96;27.89;48.20;;
45964;Laerm;31671;48.092;11.842;2022-11-11T03:58:36;31.20;27.87;56.46;;
45964;Laerm;31671;48.092;11.842;2022-11-11T04:01:20;30.46;27.83;49.89;;
45964;Laerm;31671;48.092;11.842;2022-11-11T04:04:05;30.12;27.95;43.73;;
45964;Laerm;31671;48.092;11.842;2022-11-11T04:06:51;29.28;27.67;37.99;;
45964;Laerm;31671;48.092;11.842;2022-11-11T04:09:35;29.56;27.92;35.21;;
45964;Laerm;31671;48.092;11.842;2022-11-11T04:12:19;29.19;27.53;31.13;;
45964;Laerm;31671;48.092;11.842;2022-11-11T04:15:04;30.44;27.70;47.80;;
45964;Laerm;31671;48.092;11.842;2022-11-11T04:17:48;29.57;27.58;54.21;;
45964;Laerm;31671;48.092;11.842;2022-11-11T04:20:32;31.20;27.88;55.71;;
45964;Laerm;31671;48.092;11.842;2022-11-11T04:23:16;31.50;27.83;52.05;;
45964;Laerm;31671;48.092;11.842;2022-11-11T04:26:00;29.28;27.85;35.94;;
45964;Laerm;31671;48.092;11.842;2022-11-11T04:28:44;29.42;27.91;38.75;;
45964;Laerm;31671;48.092;11.842;2022-11-11T04:31:29;29.38;27.80;34.17;;
45964;Laerm;31671;48.092;11.842;2022-11-11T04:34:13;29.33;27.93;32.64;;
45964;Laerm;31671;48.092;11.842;2022-11-11T04:36:57;29.65;28.00;35.72;;
45964;Laerm;31671;48.092;11.842;2022-11-11T04:39:41;29.26;27.80;37.15;;
45964;Laerm;31671;48.092;11.842;2022-11-11T04:42:26;29.32;27.77;34.77;;
45964;Laerm;31671;48.092;11.842;2022-11-11T04:45:10;29.34;27.80;31.51;;
45964;Laerm;31671;48.092;11.842;2022-11-11T04:50:45;29.89;27.85;34.55;;
45964;Laerm;31671;48.092;11.842;2022-11-11T04:53:29;29.26;27.85;31.71;;
45964;Laerm;31671;48.092;11.842;2022-11-11T04:56:14;29.22;27.96;31.99;;
45964;Laerm;31671;48.092;11.842;2022-11-11T04:58:58;29.18;27.51;32.86;;
45964;Laerm;31671;48.092;11.842;2022-11-11T05:01:42;32.89;27.63;66.64;;
45964;Laerm;31671;48.092;11.842;2022-11-11T05:04:27;29.31;27.89;33.13;;
45964;Laerm;31671;48.092;11.842;2022-11-11T05:07:11;30.36;27.85;50.21;;
45964;Laerm;31671;48.092;11.842;2022-11-11T05:09:55;29.31;27.78;40.40;;
45964;Laerm;31671;48.092;11.842;2022-11-11T05:12:39;29.29;27.68;32.06;;
45964;Laerm;31671;48.092;11.842;2022-11-11T05:15:23;29.45;27.83;43.68;;
45964;Laerm;31671;48.092;11.842;2022-11-11T05:18:08;29.34;27.77;40.10;;
45964;Laerm;31671;48.092;11.842;2022-11-11T05:20:52;29.37;27.56;36.84;;
45964;Laerm;31671;48.092;11.842;2022-11-11T05:23:37;29.31;27.90;31.90;;
45964;Laerm;31671;48.092;11.842;2022-11-11T05:26:21;29.40;27.76;33.09;;
45964;Laerm;31671;48.092;11.842;2022-11-11T05:29:05;29.34;27.77;32.93;;
45964;Laerm;31671;48.092;11.842;2022-11-11T05:31:50;29.28;27.81;32.89;;
45964;Laerm;31671;48.092;11.842;2022-11-11T05:34:34;29.77;28.08;32.90;;
45964;Laerm;31671;48.092;11.842;2022-11-11T05:37:18;29.67;27.93;42.46;;
45964;Laerm;31671;48.092;11.842;2022-11-11T05:40:02;29.55;27.83;38.22;;
45964;Laerm;31671;48.092;11.842;2022-11-11T05:42:47;29.53;27.87;36.23;;
45964;Laerm;31671;48.092;11.842;2022-11-11T05:45:31;29.46;28.09;31.84;;
45964;Laerm;31671;48.092;11.842;2022-11-11T05:48:15;29.55;28.01;33.32;;
45964;Laerm;31671;48.092;11.842;2022-11-11T05:51:00;29.42;27.78;32.09;;
45964;Laerm;31671;48.092;11.842;2022-11-11T05:53:44;29.50;27.86;38.45;;
45964;Laerm;31671;48.092;11.842;2022-11-11T05:56:28;29.50;27.84;32.47;;
45964;Laerm;31671;48.092;11.842;2022-11-11T05:59:12;29.47;28.05;34.52;;
45964;Laerm;31671;48.092;11.842;2022-11-11T06:01:56;29.32;27.96;31.35;;
45964;Laerm;31671;48.092;11.842;2022-11-11T06:04:40;29.30;27.78;31.91;;
45964;Laerm;31671;48.092;11.842;2022-11-11T06:07:25;29.43;27.97;31.00;;
45964;Laerm;31671;48.092;11.842;2022-11-11T06:10:09;29.42;27.90;31.41;;
45964;Laerm;31671;48.092;11.842;2022-11-11T06:12:53;29.33;27.74;30.86;;
45964;Laerm;31671;48.092;11.842;2022-11-11T06:15:38;29.40;27.96;31.08;;
45964;Laerm;31671;48.092;11.842;2022-11-11T06:18:22;29.70;28.06;36.15;;
45964;Laerm;31671;48.092;11.842;2022-11-11T06:21:06;29.60;28.02;33.60;;
45964;Laerm;31671;48.092;11.842;2022-11-11T06:23:50;29.36;27.92;31.84;;
45964;Laerm;31671;48.092;11.842;2022-11-11T06:26:34;29.41;28.09;31.83;;
45964;Laerm;31671;48.092;11.842;2022-11-11T06:29:19;29.44;27.83;31.74;;
45964;Laerm;31671;48.092;11.842;2022-11-11T06:32:03;29.30;27.72;31.49;;
45964;Laerm;31671;48.092;11.842;2022-11-11T06:34:47;29.42;28.00;31.78;;
45964;Laerm;31671;48.092;11.842;2022-11-11T06:37:31;29.42;27.59;31.79;;
45964;Laerm;31671;48.092;11.842;2022-11-11T06:40:15;29.27;27.78;31.70;;
45964;Laerm;31671;48.092;11.842;2022-11-11T06:42:59;29.30;27.81;30.96;;
45964;Laerm;31671;48.092;11.842;2022-11-11T06:45:44;29.46;27.74;38.02;;
45964;Laerm;31671;48.092;11.842;2022-11-11T06:48:28;29.52;27.87;36.95;;
45964;Laerm;31671;48.092;11.842;2022-11-11T06:51:12;29.65;28.01;35.13;;
45964;Laerm;31671;48.092;11.842;2022-11-11T06:53:57;29.92;27.43;42.98;;
45964;Laerm;31671;48.092;11.842;2022-11-11T06:56:41;29.49;27.84;31.63;;
45964;Laerm;31671;48.092;11.842;2022-11-11T06:59:25;29.53;28.03;38.56;;
45964;Laerm;31671;48.092;11.842;2022-11-11T07:02:12;30.13;27.87;36.54;;
45964;Laerm;31671;48.092;11.842;2022-11-11T07:04:57;29.47;27.98;31.01;;
45964;Laerm;31671;48.092;11.842;2022-11-11T07:07:41;29.63;28.00;33.43;;
45964;Laerm;31671;48.092;11.842;2022-11-11T07:10:26;29.74;28.03;37.84;;
45964;Laerm;31671;48.092;11.842;2022-11-11T07:13:10;29.81;28.34;34.08;;
45964;Laerm;31671;48.092;11.842;2022-11-11T07:15:54;30.31;28.43;40.42;;
45964;Laerm;31671;48.092;11.842;2022-11-11T07:18:38;29.83;28.22;32.54;;
45964;Laerm;31671;48.092;11.842;2022-11-11T07:21:22;29.77;28.32;42.04;;
45964;Laerm;31671;48.092;11.842;2022-11-11T07:24:06;29.77;28.35;32.16;;
45964;Laerm;31671;48.092;11.842;2022-11-11T07:26:50;29.87;28.36;31.73;;
45964;Laerm;31671;48.092;11.842;2022-11-11T07:29:35;29.90;28.42;33.93;;
45964;Laerm;31671;48.092;11.842;2022-11-11T07:32:19;29.91;28.57;32.04;;
45964;Laerm;31671;48.092;11.842;2022-11-11T07:35:03;29.91;28.36;31.94;;
45964;Laerm;31671;48.092;11.842;2022-11-11T07:37:48;30.03;28.61;32.01;;
45964;Laerm;31671;48.092;11.842;2022-11-11T07:40:32;30.13;28.78;32.07;;
45964;Laerm;31671;48.092;11.842;2022-11-11T07:43:16;30.09;28.56;32.16;;
45964;Laerm;31671;48.092;11.842;2022-11-11T07:46:01;30.19;28.77;32.83;;
45964;Laerm;31671;48.092;11.842;2022-11-11T07:48:45;30.27;28.68;32.77;;
45964;Laerm;31671;48.092;11.842;2022-11-11T07:51:30;30.38;28.74;34.62;;
45964;Laerm;31671;48.092;11.842;2022-11-11T07:54:14;30.07;28.44;32.91;;
45964;Laerm;31671;48.092;11.842;2022-11-11T07:56:58;30.06;28.72;35.45;;
45964;Laerm;31671;48.092;11.842;2022-11-11T07:59:43;30.07;28.51;35.87;;
45964;Laerm;31671;48.092;11.842;2022-11-11T08:02:27;30.41;28.68;36.67;;
45964;Laerm;31671;48.092;11.842;2022-11-11T08:05:11;30.23;28.80;35.77;;
45964;Laerm;31671;48.092;11.842;2022-11-11T08:07:55;30.33;28.79;32.93;;
45964;Laerm;31671;48.092;11.842;2022-11-11T08:10:45;30.41;28.93;35.74;;
45964;Laerm;31671;48.092;11.842;2022-11-11T08:13:29;30.46;28.81;33.10;;
45964;Laerm;31671;48.092;11.842;2022-11-11T08:16:13;30.54;29.11;38.10;;
45964;Laerm;31671;48.092;11.842;2022-11-11T08:18:57;30.39;29.11;33.04;;
45964;Laerm;31671;48.092;11.842;2022-11-11T08:21:41;30.46;29.01;35.68;;
45964;Laerm;31671;48.092;11.842;2022-11-11T08:24:26;30.41;29.09;35.66;;
45964;Laerm;31671;48.092;11.842;2022-11-11T08:27:10;30.52;29.10;37.65;;
45964;Laerm;31671;48.092;11.842;2022-11-11T08:29:54;30.61;29.05;37.40;;
45964;Laerm;31671;48.092;11.842;2022-11-11T08:32:38;30.54;29.15;52.11;;
45964;Laerm;31671;48.092;11.842;2022-11-11T08:35:23;30.89;29.09;43.26;;
45964;Laerm;31671;48.092;11.842;2022-11-11T08:38:07;30.40;28.81;38.88;;
45964;Laerm;31671;48.092;11.842;2022-11-11T08:40:51;30.68;29.04;42.51;;
45964;Laerm;31671;48.092;11.842;2022-11-11T08:43:35;34.28;29.15;53.89;;
45964;Laerm;31671;48.092;11.842;2022-11-11T08:46:20;31.07;29.11;45.72;;
45964;Laerm;31671;48.092;11.842;2022-11-11T08:49:04;30.83;29.13;42.87;;
45964;Laerm;31671;48.092;11.842;2022-11-11T08:51:49;33.35;29.05;59.09;;
45964;Laerm;31671;48.092;11.842;2022-11-11T08:54:33;32.70;29.07;48.04;;
45964;Laerm;31671;48.092;11.842;2022-11-11T08:57:18;32.33;29.15;52.77;;
45964;Laerm;31671;48.092;11.842;2022-11-11T09:00:03;32.48;29.43;52.02;;
45964;Laerm;31671;48.092;11.842;2022-11-11T09:02:47;34.63;29.45;52.03;;
45964;Laerm;31671;48.092;11.842;2022-11-11T09:05:31;32.89;29.33;50.68;;
45964;Laerm;31671;48.092;11.842;2022-11-11T09:08:16;37.54;29.30;59.14;;
45964;Laerm;31671;48.092;11.842;2022-11-11T09:11:00;32.58;29.42;56.10;;
45964;Laerm;31671;48.092;11.842;2022-11-11T09:13:48;35.99;29.25;58.94;;
45964;Laerm;31671;48.092;11.842;2022-11-11T09:16:32;36.48;29.49;59.30;;
45964;Laerm;31671;48.092;11.842;2022-11-11T09:19:16;31.62;29.47;50.71;;
45964;Laerm;31671;48.092;11.842;2022-11-11T09:22:00;33.84;29.40;52.72;;
45964;Laerm;31671;48.092;11.842;2022-11-11T09:24:45;39.52;29.56;62.73;;
45964;Laerm;31671;48.092;11.842;2022-11-11T09:27:29;32.02;29.23;49.37;;
45964;Laerm;31671;48.092;11.842;2022-11-11T09:30:13;31.78;29.55;49.53;;
45964;Laerm;31671;48.092;11.842;2022-11-11T09:33:01;30.78;29.25;39.90;;
45964;Laerm;31671;48.092;11.842;2022-11-11T09:35:46;30.64;29.17;32.36;;
45964;Laerm;31671;48.092;11.842;2022-11-11T09:38:30;30.68;29.24;33.53;;
45964;Laerm;31671;48.092;11.842;2022-11-11T09:41:22;30.90;29.42;44.06;;
45964;Laerm;31671;48.092;11.842;2022-11-11T09:44:20;30.79;29.42;36.76;;
45964;Laerm;31671;48.092;11.842;2022-11-11T09:47:13;30.62;29.36;37.89;;
45964;Laerm;31671;48.092;11.842;2022-11-11T09:50:09;31.45;29.22;49.51;;
45964;Laerm;31671;48.092;11.842;2022-11-11T09:53:10;31.70;29.26;50.35;;
45964;Laerm;31671;48.092;11.842;2022-11-11T09:55:57;32.14;29.40;52.58;;
45964;Laerm;31671;48.092;11.842;2022-11-11T09:58:48;31.13;29.43;49.95;;
45964;Laerm;31671;48.092;11.842;2022-11-11T10:01:39;30.91;29.39;37.78;;
45964;Laerm;31671;48.092;11.842;2022-11-11T10:04:34;30.96;29.38;39.33;;
45964;Laerm;31671;48.092;11.842;2022-11-11T10:10:46;30.59;28.97;32.41;;
45964;Laerm;31671;48.092;11.842;2022-11-11T10:13:33;30.46;29.03;32.78;;
45964;Laerm;31671;48.092;11.842;2022-11-11T10:21:56;30.54;28.78;34.00;;
45964;Laerm;31671;48.092;11.842;2022-11-11T10:24:41;30.75;28.83;36.53;;
45964;Laerm;31671;48.092;11.842;2022-11-11T10:27:29;30.78;28.87;34.68;;
45964;Laerm;31671;48.092;11.842;2022-11-11T10:33:11;30.52;28.79;38.53;;
45964;Laerm;31671;48.092;11.842;2022-11-11T10:35:58;29.98;28.62;34.76;;
45964;Laerm;31671;48.092;11.842;2022-11-11T10:41:32;30.51;28.57;36.17;;
45964;Laerm;31671;48.092;11.842;2022-11-11T10:44:25;29.95;28.22;33.55;;
45964;Laerm;31671;48.092;11.842;2022-11-11T10:52:42;29.81;28.18;33.04;;
45964;Laerm;31671;48.092;11.842;2022-11-11T10:55:29;29.75;28.11;33.44;;
45964;Laerm;31671;48.092;11.842;2022-11-11T11:01:21;29.79;28.12;35.18;;
45964;Laerm;31671;48.092;11.842;2022-11-11T11:04:09;29.55;27.90;33.75;;
45964;Laerm;31671;48.092;11.842;2022-11-11T11:06:58;29.47;28.10;31.47;;
45964;Laerm;31671;48.092;11.842;2022-11-11T11:12:37;29.46;28.09;31.88;;
45964;Laerm;31671;48.092;11.842;2022-11-11T11:15:23;29.53;28.08;33.41;;
45964;Laerm;31671;48.092;11.842;2022-11-11T11:18:12;29.57;28.02;32.79;;
45964;Laerm;31671;48.092;11.842;2022-11-11T11:20:58;29.50;28.13;31.14;;
45964;Laerm;31671;48.092;11.842;2022-11-11T11:23:44;29.44;27.94;31.95;;
45964;Laerm;31671;48.092;11.842;2022-11-11T11:26:41;29.41;27.94;33.61;;
45964;Laerm;31671;48.092;11.842;2022-11-11T11:29:30;29.36;27.76;33.85;;
45964;Laerm;31671;48.092;11.842;2022-11-11T11:32:15;29.88;28.00;35.77;;
45964;Laerm;31671;48.092;11.842;2022-11-11T11:35:00;29.36;27.95;30.82;;
45964;Laerm;31671;48.092;11.842;2022-11-11T11:37:48;29.36;27.85;30.82;;
45964;Laerm;31671;48.092;11.842;2022-11-11T11:40:46;29.38;27.86;31.10;;
45964;Laerm;31671;48.092;11.842;2022-11-11T11:46:36;29.47;28.20;36.84;;
45964;Laerm;31671;48.092;11.842;2022-11-11T11:49:25;29.48;28.17;31.31;;
45964;Laerm;31671;48.092;11.842;2022-11-11T11:52:19;29.50;27.90;30.97;;
45964;Laerm;31671;48.092;11.842;2022-11-11T11:55:15;29.77;28.14;33.24;;
45964;Laerm;31671;48.092;11.842;2022-11-11T12:01:03;33.35;28.59;44.22;;
45964;Laerm;31671;48.092;11.842;2022-11-11T12:06:45;29.75;28.55;31.30;;
45964;Laerm;31671;48.092;11.842;2022-11-11T12:09:36;29.78;28.28;35.50;;
45964;Laerm;31671;48.092;11.842;2022-11-11T12:12:28;29.66;28.07;33.19;;
45964;Laerm;31671;48.092;11.842;2022-11-11T12:21:13;29.73;28.37;41.44;;
45964;Laerm;31671;48.092;11.842;2022-11-11T12:24:07;29.71;28.43;39.35;;
45964;Laerm;31671;48.092;11.842;2022-11-11T12:27:10;29.70;28.23;37.65;;
45964;Laerm;31671;48.092;11.842;2022-11-11T12:30:08;29.84;28.27;40.16;;
45964;Laerm;31671;48.092;11.842;2022-11-11T12:38:32;29.27;27.96;34.58;;
45964;Laerm;31671;48.092;11.842;2022-11-11T12:41:24;29.25;27.86;34.77;;
45964;Laerm;31671;48.092;11.842;2022-11-11T12:44:11;29.24;27.92;34.26;;
45964;Laerm;31671;48.092;11.842;2022-11-11T12:47:07;29.24;27.93;31.90;;
45964;Laerm;31671;48.092;11.842;2022-11-11T12:55:53;30.40;28.24;46.97;;
45964;Laerm;31671;48.092;11.842;2022-11-11T12:58:56;30.36;28.16;45.36;;
45964;Laerm;31671;48.092;11.842;2022-11-11T13:01:47;30.84;28.52;45.58;;
45964;Laerm;31671;48.092;11.842;2022-11-11T13:04:37;30.48;28.43;41.32;;
45964;Laerm;31671;48.092;11.842;2022-11-11T13:07:34;29.79;28.40;36.84;;
45964;Laerm;31671;48.092;11.842;2022-11-11T13:10:24;30.03;28.34;43.31;;
45964;Laerm;31671;48.092;11.842;2022-11-11T13:15:57;30.75;28.66;38.86;;
45964;Laerm;31671;48.092;11.842;2022-11-11T13:24:19;31.27;28.80;49.94;;
45964;Laerm;31671;48.092;11.842;2022-11-11T13:27:05;31.43;28.97;46.56;;
45964;Laerm;31671;48.092;11.842;2022-11-11T13:30:16;31.28;28.67;49.55;;
45964;Laerm;31671;48.092;11.842;2022-11-11T13:33:09;30.62;28.86;50.00;;
45964;Laerm;31671;48.092;11.842;2022-11-11T13:35:58;30.55;28.93;35.43;;
45964;Laerm;31671;48.092;11.842;2022-11-11T13:38:45;30.99;28.95;44.52;;
45964;Laerm;31671;48.092;11.842;2022-11-11T13:41:31;30.81;29.17;37.60;;
45964;Laerm;31671;48.092;11.842;2022-11-11T13:44:19;30.75;29.07;41.04;;
45964;Laerm;31671;48.092;11.842;2022-11-11T13:47:06;30.83;29.25;36.78;;
45964;Laerm;31671;48.092;11.842;2022-11-11T13:52:40;30.67;29.20;35.27;;
45964;Laerm;31671;48.092;11.842;2022-11-11T13:58:25;30.59;29.24;35.35;;
45964;Laerm;31671;48.092;11.842;2022-11-11T14:01:11;30.46;29.22;32.30;;
45964;Laerm;31671;48.092;11.842;2022-11-11T14:03:57;30.57;29.24;33.53;;
45964;Laerm;31671;48.092;11.842;2022-11-11T14:06:48;30.57;29.10;34.53;;
45964;Laerm;31671;48.092;11.842;2022-11-11T14:09:52;30.68;29.20;33.32;;
45964;Laerm;31671;48.092;11.842;2022-11-11T14:12:37;30.60;29.25;32.85;;
45964;Laerm;31671;48.092;11.842;2022-11-11T14:21:03;30.61;29.15;38.31;;
45964;Laerm;31671;48.092;11.842;2022-11-11T14:23:51;30.67;29.33;39.86;;
45964;Laerm;31671;48.092;11.842;2022-11-11T14:26:36;30.90;29.11;42.61;;
45964;Laerm;31671;48.092;11.842;2022-11-11T14:29:28;31.06;29.13;52.36;;
45964;Laerm;31671;48.092;11.842;2022-11-11T14:32:34;30.87;29.21;47.90;;
45964;Laerm;31671;48.092;11.842;2022-11-11T14:35:28;31.29;29.08;43.42;;
45964;Laerm;31671;48.092;11.842;2022-11-11T14:38:19;30.93;29.13;43.21;;
45964;Laerm;31671;48.092;11.842;2022-11-11T14:49:56;34.00;28.88;45.38;;
45964;Laerm;31671;48.092;11.842;2022-11-11T14:52:41;30.66;29.13;46.31;;
45964;Laerm;31671;48.092;11.842;2022-11-11T14:55:31;30.37;28.93;32.32;;
45964;Laerm;31671;48.092;11.842;2022-11-11T14:58:18;30.61;29.12;35.62;;
45964;Laerm;31671;48.092;11.842;2022-11-11T15:01:09;30.53;28.91;42.21;;
45964;Laerm;31671;48.092;11.842;2022-11-11T15:03:55;30.30;28.93;35.13;;
45964;Laerm;31671;48.092;11.842;2022-11-11T15:06:45;30.43;28.81;41.34;;
45964;Laerm;31671;48.092;11.842;2022-11-11T15:09:39;30.41;28.80;35.32;;
45964;Laerm;31671;48.092;11.842;2022-11-11T15:12:33;35.93;28.75;50.78;;
45964;Laerm;31671;48.092;11.842;2022-11-11T15:15:40;30.27;28.70;40.25;;
45964;Laerm;31671;48.092;11.842;2022-11-11T15:21:12;30.81;28.62;45.15;;
45964;Laerm;31671;48.092;11.842;2022-11-11T15:26:50;32.22;28.78;50.38;;
45964;Laerm;31671;48.092;11.842;2022-11-11T15:35:28;31.35;28.46;47.29;;
45964;Laerm;31671;48.092;11.842;2022-11-11T15:38:14;33.82;28.48;51.35;;
45964;Laerm;31671;48.092;11.842;2022-11-11T15:41:00;30.64;28.40;46.93;;
45964;Laerm;31671;48.092;11.842;2022-11-11T15:43:44;34.00;28.57;60.04;;
45964;Laerm;31671;48.092;11.842;2022-11-11T15:46:29;30.17;28.53;43.61;;
45964;Laerm;31671;48.092;11.842;2022-11-11T15:49:14;32.15;28.24;49.55;;
45964;Laerm;31671;48.092;11.842;2022-11-11T15:55:17;36.40;28.15;55.73;;
45964;Laerm;31671;48.092;11.842;2022-11-11T16:01:00;36.00;28.23;56.87;;
45964;Laerm;31671;48.092;11.842;2022-11-11T16:03:45;33.89;28.43;53.23;;
45964;Laerm;31671;48.092;11.842;2022-11-11T16:06:29;30.72;28.34;42.28;;
45964;Laerm;31671;48.092;11.842;2022-11-11T16:09:17;34.27;28.31;52.99;;
45964;Laerm;31671;48.092;11.842;2022-11-11T16:12:02;36.80;28.55;57.77;;
45964;Laerm;31671;48.092;11.842;2022-11-11T16:14:47;38.99;28.13;62.30;;
45964;Laerm;31671;48.092;11.842;2022-11-11T16:17:34;34.93;28.30;53.25;;
45964;Laerm;31671;48.092;11.842;2022-11-11T16:20:31;33.21;28.45;50.59;;
45964;Laerm;31671;48.092;11.842;2022-11-11T16:23:17;32.75;28.34;49.17;;
45964;Laerm;31671;48.092;11.842;2022-11-11T16:26:03;30.38;28.07;42.38;;
45964;Laerm;31671;48.092;11.842;2022-11-11T16:28:48;29.45;27.80;32.15;;
45964;Laerm;31671;48.092;11.842;2022-11-11T16:34:39;29.57;28.14;31.41;;
45964;Laerm;31671;48.092;11.842;2022-11-11T16:37:25;29.60;28.27;32.05;;
45964;Laerm;31671;48.092;11.842;2022-11-11T16:40:33;29.48;28.05;31.92;;
45964;Laerm;31671;48.092;11.842;2022-11-11T16:43:21;29.56;28.17;31.66;;
45964;Laerm;31671;48.092;11.842;2022-11-11T16:46:13;58.35;27.96;95.21;;
45964;Laerm;31671;48.092;11.842;2022-11-11T16:48:57;29.78;27.72;35.94;;
45964;Laerm;31671;48.092;11.842;2022-11-11T16:51:43;29.67;27.91;34.29;;
45964;Laerm;31671;48.092;11.842;2022-11-11T16:54:29;30.30;28.12;35.26;;
45964;Laerm;31671;48.092;11.842;2022-11-11T16:57:18;29.34;27.82;31.19;;
45964;Laerm;31671;48.092;11.842;2022-11-11T17:00:04;29.72;27.86;34.57;;
45964;Laerm;31671;48.092;11.842;2022-11-11T17:05:55;29.38;28.00;30.95;;
45964;Laerm;31671;48.092;11.842;2022-11-11T17:08:42;29.65;28.03;34.46;;
45964;Laerm;31671;48.092;11.842;2022-11-11T17:14:24;29.46;28.13;31.72;;
45964;Laerm;31671;48.092;11.842;2022-11-11T17:17:09;29.50;28.01;32.10;;
45964;Laerm;31671;48.092;11.842;2022-11-11T17:19:54;29.34;27.83;31.01;;
45964;Laerm;31671;48.092;11.842;2022-11-11T17:22:52;29.34;27.99;31.10;;
45964;Laerm;31671;48.092;11.842;2022-11-11T17:25:37;30.04;27.91;34.75;;
45964;Laerm;31671;48.092;11.842;2022-11-11T17:28:21;29.26;27.99;31.79;;